METAR Data
IDs: Format: Raw Decoded Include TAF

Data at: 1311 UTC 24 May 2022

SAEZ 241300Z 34005KT CAVOK 16/11 Q1014 NOSIG RMK PP000